createdAt,value
2023-04-03T00:00:34.733Z,88.38
2023-04-03T00:03:01.697Z,88.69
2023-04-03T00:05:28.390Z,88.36
2023-04-03T00:07:55.060Z,88.99
2023-04-03T00:10:21.692Z,89.29
2023-04-03T00:12:48.324Z,90.26
2023-04-03T00:15:15.028Z,88.70
2023-04-03T00:17:42.378Z,88.79
2023-04-03T00:20:11.945Z,90.52
2023-04-03T00:22:38.676Z,90.88
2023-04-03T00:25:06.195Z,91.20
2023-04-03T00:27:32.818Z,90.81
2023-04-03T00:29:59.448Z,91.71
2023-04-03T00:32:26.119Z,90.30
2023-04-03T00:34:52.786Z,90.23
2023-04-03T00:37:19.520Z,88.77
2023-04-03T00:39:46.398Z,88.40
2023-04-03T00:42:13.412Z,88.76
2023-04-03T00:45:01.719Z,89.20
2023-04-03T00:47:29.172Z,89.67
2023-04-03T00:49:56.116Z,89.67
2023-04-03T00:52:26.966Z,89.59
2023-04-03T00:55:03.191Z,89.47
2023-04-03T00:57:32.216Z,88.58
2023-04-03T01:00:05.770Z,89.07
2023-04-03T01:02:32.496Z,89.33
2023-04-03T01:04:59.241Z,89.06
2023-04-03T01:07:30.761Z,88.99
2023-04-03T01:10:00.771Z,89.29
2023-04-03T01:12:33.558Z,89.62
2023-04-03T01:15:03.959Z,89.74
2023-04-03T01:17:37.061Z,90.45
2023-04-03T01:20:41.860Z,90.08
2023-04-03T01:23:37.720Z,88.04
2023-04-03T01:26:04.392Z,87.68
2023-04-03T01:28:34.768Z,86.41
2023-04-03T01:31:57.134Z,85.43
2023-04-03T01:34:24.634Z,86.17
2023-04-03T01:36:52.351Z,86.40
2023-04-03T01:39:19.855Z,86.59
2023-04-03T01:41:46.688Z,87.26
2023-04-03T01:44:13.785Z,86.69
2023-04-03T01:46:40.632Z,86.66
2023-04-03T01:49:07.265Z,86.96
2023-04-03T01:51:34.530Z,87.05
2023-04-03T01:54:01.287Z,86.28
2023-04-03T01:56:27.929Z,85.99
2023-04-03T01:58:54.602Z,85.39
2023-04-03T02:01:22.206Z,86.69
2023-04-03T02:03:49.027Z,87.89
2023-04-03T02:06:15.960Z,87.02
2023-04-03T02:08:42.791Z,84.37
2023-04-03T02:11:09.507Z,83.63
2023-04-03T02:13:36.228Z,85.14
2023-04-03T02:16:11.009Z,85.92
2023-04-03T02:18:38.323Z,85.62
2023-04-03T02:21:05.056Z,85.13
2023-04-03T02:23:31.780Z,84.55
2023-04-03T02:26:09.908Z,84.21
2023-04-03T02:28:36.939Z,82.88
2023-04-03T02:31:04.808Z,83.53
2023-04-03T02:33:31.816Z,83.43
2023-04-03T02:35:59.572Z,83.26
2023-04-03T02:38:26.465Z,83.15
2023-04-03T02:40:53.393Z,83.38
2023-04-03T02:43:20.167Z,82.94
2023-04-03T02:45:46.826Z,82.87
2023-04-03T02:48:13.522Z,82.17
2023-04-03T02:50:40.250Z,82.02
2023-04-03T02:53:06.904Z,82.59
2023-04-03T02:55:33.534Z,85.22
2023-04-03T02:58:00.389Z,84.31
2023-04-03T03:00:27.025Z,84.11
2023-04-03T03:02:54.176Z,84.23
2023-04-03T03:05:20.914Z,82.95
2023-04-03T03:07:47.571Z,81.99
2023-04-03T03:10:14.455Z,80.97
2023-04-03T03:12:41.516Z,80.48
2023-04-03T03:15:08.621Z,81.58
2023-04-03T03:17:36.791Z,82.03
2023-04-03T03:20:05.016Z,82.65
2023-04-03T03:22:31.921Z,82.65
2023-04-03T03:24:59.816Z,82.62
2023-04-03T03:27:29.304Z,81.96
2023-04-03T03:29:55.913Z,81.42
2023-04-03T03:32:22.516Z,81.67
2023-04-03T03:34:49.132Z,81.67
2023-04-03T03:37:15.850Z,80.79
2023-04-03T03:39:42.433Z,83.08
2023-04-03T03:42:09.233Z,82.00
2023-04-03T03:44:35.795Z,83.58
2023-04-03T03:47:02.388Z,83.80
2023-04-03T03:49:29.018Z,84.58
2023-04-03T03:51:56.638Z,83.69
2023-04-03T03:54:23.173Z,82.78
2023-04-03T03:56:49.832Z,81.88
2023-04-03T03:59:17.548Z,81.77
2023-04-03T04:01:44.351Z,80.76
2023-04-03T04:04:13.141Z,81.00
2023-04-03T04:06:39.783Z,80.76
2023-04-03T04:09:06.430Z,82.33
2023-04-03T04:11:34.360Z,82.78
2023-04-03T04:14:01.016Z,83.78
2023-04-03T04:16:27.960Z,84.55
2023-04-03T04:18:54.879Z,84.97
2023-04-03T04:21:21.475Z,84.72
2023-04-03T04:23:48.150Z,85.17
2023-04-03T04:26:14.925Z,85.73
2023-04-03T04:28:41.526Z,83.85
2023-04-03T04:31:08.185Z,83.25
2023-04-03T04:33:34.923Z,84.35
2023-04-03T04:36:01.671Z,84.47
2023-04-03T04:38:28.294Z,85.54
2023-04-03T04:40:54.981Z,86.62
2023-04-03T04:43:21.611Z,86.34
2023-04-03T04:45:48.415Z,85.38
2023-04-03T04:48:15.080Z,85.30
2023-04-03T04:50:41.715Z,86.40
2023-04-03T04:53:09.619Z,86.76
2023-04-03T04:55:36.406Z,87.30
2023-04-03T04:58:03.183Z,87.04
2023-04-03T05:00:29.816Z,86.81
2023-04-03T05:02:56.530Z,86.14
2023-04-03T05:05:23.616Z,86.17
2023-04-03T05:07:50.228Z,85.38
2023-04-03T05:10:16.933Z,84.89
2023-04-03T05:12:43.577Z,84.33
2023-04-03T05:15:10.676Z,83.41
2023-04-03T05:17:37.418Z,84.84
2023-04-03T05:20:05.986Z,84.01
2023-04-03T05:22:33.011Z,83.13
2023-04-03T05:24:59.576Z,82.66
2023-04-03T05:27:26.205Z,83.57
2023-04-03T05:29:53.824Z,84.04
2023-04-03T05:32:21.296Z,85.06
2023-04-03T05:34:48.189Z,83.28
2023-04-03T05:37:14.903Z,83.16
2023-04-03T05:39:41.938Z,81.01
2023-04-03T05:42:08.900Z,82.89
2023-04-03T05:44:36.148Z,81.93
2023-04-03T05:47:03.540Z,80.71
2023-04-03T05:49:30.419Z,81.50
2023-04-03T05:51:57.124Z,84.05
2023-04-03T05:54:27.720Z,81.12
2023-04-03T05:56:54.799Z,82.53
2023-04-03T05:59:22.105Z,80.33
2023-04-03T06:01:49.397Z,77.92
2023-04-03T06:04:16.209Z,79.23
2023-04-03T06:06:54.874Z,78.62
2023-04-03T06:09:25.489Z,77.20
2023-04-03T06:11:52.895Z,78.28
2023-04-03T06:14:20.107Z,78.51
2023-04-03T06:16:46.760Z,79.23
2023-04-03T06:19:13.588Z,78.72
2023-04-03T06:21:40.643Z,78.36
2023-04-03T06:24:08.314Z,80.09
2023-04-03T06:26:35.373Z,81.88
2023-04-03T06:29:03.345Z,79.81
2023-04-03T06:31:30.812Z,78.09
2023-04-03T06:33:57.505Z,76.21
2023-04-03T06:36:24.275Z,77.82
2023-04-03T06:38:51.031Z,77.50
2023-04-03T06:41:18.182Z,78.72
2023-04-03T06:43:45.909Z,78.79
2023-04-03T06:46:21.561Z,78.59
2023-04-03T06:48:51.140Z,76.42
2023-04-03T06:51:28.879Z,77.68
2023-04-03T06:53:57.732Z,75.42
2023-04-03T06:56:26.110Z,73.65
2023-04-03T06:58:55.369Z,74.63
2023-04-03T07:01:29.036Z,75.60
2023-04-03T07:03:56.458Z,74.42
2023-04-03T07:06:28.047Z,75.37
2023-04-03T07:08:55.519Z,70.66
2023-04-03T07:11:22.252Z,71.09
2023-04-03T07:13:49.321Z,71.48
2023-04-03T07:16:16.299Z,72.35
2023-04-03T07:18:43.014Z,68.65
2023-04-03T07:21:09.637Z,69.36
2023-04-03T07:23:36.350Z,69.64
2023-04-03T07:26:03.350Z,72.06
2023-04-03T07:28:30.732Z,73.40
2023-04-03T07:31:03.644Z,74.40
2023-04-03T07:33:30.624Z,72.60
2023-04-03T07:35:57.252Z,75.51
2023-04-03T07:38:23.999Z,74.43
2023-04-03T07:40:51.928Z,74.36
2023-04-03T07:43:19.584Z,73.01
2023-04-03T07:45:46.308Z,74.58
2023-04-03T07:48:13.529Z,70.13
2023-04-03T07:50:43.522Z,69.53
2023-04-03T07:53:10.546Z,69.74
2023-04-03T07:55:43.820Z,72.03
2023-04-03T07:58:12.367Z,71.03
2023-04-03T08:00:39.733Z,70.16
2023-04-03T08:03:09.572Z,69.34
2023-04-03T08:05:42.334Z,69.96
2023-04-03T08:08:10.255Z,70.05
2023-04-03T08:10:36.881Z,69.73
2023-04-03T08:13:04.281Z,71.45
2023-04-03T08:15:32.464Z,72.13
2023-04-03T08:17:59.848Z,72.48
2023-04-03T08:20:26.737Z,73.08
2023-04-03T08:22:53.680Z,73.78
2023-04-03T08:25:20.430Z,75.26
2023-04-03T08:27:47.558Z,77.11
2023-04-03T08:30:14.719Z,78.61
2023-04-03T08:32:43.517Z,80.39
2023-04-03T08:35:10.684Z,79.39
2023-04-03T08:37:38.313Z,81.68
2023-04-03T08:40:07.399Z,82.02
2023-04-03T08:43:18.774Z,80.79
2023-04-03T08:46:07.429Z,81.31
2023-04-03T08:48:42.068Z,80.98
2023-04-03T08:51:18.118Z,80.82
2023-04-03T08:53:57.332Z,81.04
2023-04-03T08:56:25.628Z,80.07
2023-04-03T08:58:57.844Z,77.22
2023-04-03T09:01:30.979Z,78.35
2023-04-03T09:03:57.860Z,82.14
2023-04-03T09:06:33.706Z,82.49
2023-04-03T09:09:27.971Z,82.27
2023-04-03T09:12:24.964Z,80.77
2023-04-03T09:15:37.623Z,79.53
2023-04-03T09:18:40.882Z,79.60
2023-04-03T09:21:25.760Z,78.56
2023-04-03T09:23:59.275Z,77.52
2023-04-03T09:26:31.814Z,76.79
2023-04-03T09:29:01.819Z,77.29
2023-04-03T09:31:35.423Z,75.88
2023-04-03T09:34:08.072Z,75.00
2023-04-03T09:36:46.957Z,73.96
2023-04-03T09:39:28.517Z,74.49
2023-04-03T09:42:04.159Z,72.96
2023-04-03T09:44:37.006Z,72.80
2023-04-03T09:47:25.928Z,74.41
2023-04-03T09:50:20.950Z,75.36
2023-04-03T09:52:50.332Z,71.05
2023-04-03T09:55:29.698Z,65.24
2023-04-03T09:58:02.675Z,68.74
2023-04-03T10:00:40.045Z,67.40
2023-04-03T10:03:29.782Z,66.17
2023-04-03T10:05:58.683Z,70.75
2023-04-03T10:08:31.993Z,63.45
2023-04-03T10:11:28.196Z,62.54
2023-04-03T10:13:57.819Z,63.10
2023-04-03T10:16:37.560Z,61.39
2023-04-03T10:19:35.056Z,62.55
2023-04-03T10:22:38.034Z,62.36
2023-04-03T10:25:55.175Z,61.75
2023-04-03T10:29:06.526Z,61.93
2023-04-03T10:32:05.099Z,61.58
2023-04-03T10:34:37.090Z,60.53
2023-04-03T10:37:33.216Z,61.78
2023-04-03T10:40:32.242Z,63.27
2023-04-03T10:43:42.225Z,62.41
2023-04-03T10:46:39.730Z,61.94
2023-04-03T10:49:35.524Z,59.97
2023-04-03T10:52:19.655Z,59.54
2023-04-03T10:55:26.431Z,57.17
2023-04-03T10:57:57.491Z,58.25
2023-04-03T11:00:42.874Z,58.52
2023-04-03T11:03:44.948Z,58.51
2023-04-03T11:06:15.705Z,59.22
2023-04-03T11:08:57.732Z,58.14
2023-04-03T11:11:31.743Z,57.93
2023-04-03T11:14:17.115Z,62.50
2023-04-03T11:16:54.167Z,57.03
2023-04-03T11:19:27.459Z,57.11
2023-04-03T11:21:59.181Z,56.97
2023-04-03T11:24:33.201Z,57.93
2023-04-03T11:27:04.839Z,59.05
2023-04-03T11:29:37.690Z,61.25
2023-04-03T11:32:30.509Z,57.52
2023-04-03T11:35:00.723Z,57.34
2023-04-03T11:37:47.171Z,58.61
2023-04-03T11:40:25.624Z,57.29
2023-04-03T11:43:07.129Z,59.26
2023-04-03T11:45:51.023Z,58.79
2023-04-03T11:48:24.975Z,59.94
2023-04-03T11:50:53.017Z,58.04
2023-04-03T11:53:55.097Z,56.76
2023-04-03T11:56:34.840Z,57.78
2023-04-03T11:59:28.490Z,61.31
2023-04-03T12:02:01.555Z,59.52
2023-04-03T12:04:28.740Z,56.37
2023-04-03T12:07:11.209Z,57.89
2023-04-03T12:09:59.057Z,56.50
2023-04-03T12:12:31.680Z,58.27
2023-04-03T12:15:13.316Z,58.59
2023-04-03T12:17:39.981Z,59.38
2023-04-03T12:20:44.833Z,58.14
2023-04-03T12:23:35.580Z,57.81
2023-04-03T12:26:23.920Z,57.76
2023-04-03T12:28:54.207Z,56.11
2023-04-03T12:31:26.285Z,58.76
2023-04-03T12:34:18.800Z,57.11
2023-04-03T12:37:22.886Z,56.79
2023-04-03T12:39:56.569Z,56.73
2023-04-03T12:43:02.257Z,55.68
2023-04-03T12:46:03.230Z,54.02
2023-04-03T12:48:31.991Z,53.95
2023-04-03T12:51:00.477Z,55.94
2023-04-03T12:53:37.071Z,57.37
2023-04-03T12:56:40.469Z,58.17
2023-04-03T12:59:23.298Z,57.40
2023-04-03T13:02:17.123Z,56.89
2023-04-03T13:04:43.773Z,56.23
2023-04-03T13:07:33.166Z,57.11
2023-04-03T13:10:28.856Z,57.58
2023-04-03T13:13:08.418Z,57.75
2023-04-03T13:15:49.746Z,57.37
2023-04-03T13:18:34.494Z,56.10
2023-04-03T13:21:26.794Z,56.43
2023-04-03T13:24:15.899Z,56.92
2023-04-03T13:26:43.707Z,58.48
2023-04-03T13:29:29.975Z,54.11
2023-04-03T13:31:58.925Z,56.34
2023-04-03T13:34:28.840Z,56.86
2023-04-03T13:36:58.446Z,56.27
2023-04-03T13:39:27.068Z,56.46
2023-04-03T13:41:59.492Z,56.79
2023-04-03T13:44:37.539Z,56.38
2023-04-03T13:47:24.505Z,56.53
2023-04-03T13:50:05.390Z,54.56
2023-04-03T13:52:36.888Z,56.36
2023-04-03T13:55:34.564Z,55.05
2023-04-03T13:58:23.266Z,58.05
2023-04-03T14:01:07.154Z,55.52
2023-04-03T14:03:53.607Z,53.83
2023-04-03T14:06:20.337Z,54.82
2023-04-03T14:08:47.968Z,52.13
2023-04-03T14:11:21.791Z,52.45
2023-04-03T14:13:49.523Z,51.53
2023-04-03T14:16:22.176Z,51.72
2023-04-03T14:18:50.811Z,51.50
2023-04-03T14:21:18.909Z,51.24
2023-04-03T14:23:46.486Z,55.24
2023-04-03T14:26:17.304Z,52.29
2023-04-03T14:28:45.425Z,53.64
2023-04-03T14:31:13.482Z,54.51
2023-04-03T14:33:41.019Z,54.29
2023-04-03T14:36:26.364Z,56.03
2023-04-03T14:38:57.081Z,55.68
2023-04-03T14:41:25.865Z,54.49
2023-04-03T14:43:53.582Z,56.05
2023-04-03T14:46:38.649Z,58.57
2023-04-03T14:49:24.756Z,55.77
2023-04-03T14:51:51.590Z,55.21
2023-04-03T14:54:26.298Z,54.57
2023-04-03T14:56:53.503Z,52.85
2023-04-03T14:59:22.451Z,55.65
2023-04-03T15:01:50.032Z,53.70
2023-04-03T15:04:19.118Z,54.41
2023-04-03T15:06:46.382Z,51.57
2023-04-03T15:09:28.401Z,53.23
2023-04-03T15:11:56.270Z,56.04
2023-04-03T15:14:35.936Z,53.50
2023-04-03T15:17:06.087Z,53.04
2023-04-03T15:19:41.968Z,53.69
2023-04-03T15:22:17.126Z,52.71
2023-04-03T15:24:44.467Z,54.39
2023-04-03T15:27:12.671Z,52.69
2023-04-03T15:29:40.798Z,51.81
2023-04-03T15:32:07.549Z,53.29
2023-04-03T15:34:34.687Z,54.21
2023-04-03T15:37:02.090Z,55.02
2023-04-03T15:39:28.977Z,54.45
2023-04-03T15:41:56.259Z,56.21
2023-04-03T15:44:23.015Z,54.51
2023-04-03T15:46:52.201Z,56.60
2023-04-03T15:49:21.856Z,54.51
2023-04-03T15:51:48.589Z,54.99
2023-04-03T15:54:15.584Z,54.70
2023-04-03T15:56:42.123Z,56.00
2023-04-03T15:59:09.194Z,54.69
2023-04-03T16:01:37.329Z,55.04
2023-04-03T16:04:04.984Z,53.52
2023-04-03T16:06:32.809Z,54.82
2023-04-03T16:08:59.435Z,54.84
2023-04-03T16:11:28.247Z,54.34
2023-04-03T16:13:55.867Z,55.16
2023-04-03T16:16:23.192Z,56.73
2023-04-03T16:18:50.695Z,57.49
2023-04-03T16:21:20.720Z,56.74
2023-04-03T16:23:47.461Z,57.50
2023-04-03T16:26:15.210Z,58.85
2023-04-03T16:28:41.903Z,59.18
2023-04-03T16:31:09.192Z,59.07
2023-04-03T16:33:36.418Z,58.21
2023-04-03T16:36:04.524Z,58.69
2023-04-03T16:38:31.238Z,59.37
2023-04-03T16:41:00.332Z,61.30
2023-04-03T16:43:27.920Z,61.58
2023-04-03T16:45:54.675Z,63.40
2023-04-03T16:48:21.945Z,63.30
2023-04-03T16:50:49.986Z,64.53
2023-04-03T16:53:16.585Z,64.51
2023-04-03T16:55:43.269Z,64.93
2023-04-03T16:58:11.124Z,65.18
2023-04-03T17:00:38.188Z,65.74
2023-04-03T17:03:07.366Z,65.97
2023-04-03T17:05:34.097Z,65.80
2023-04-03T17:08:01.970Z,67.17
2023-04-03T17:10:28.809Z,67.03
2023-04-03T17:12:55.588Z,65.30
2023-04-03T17:15:22.755Z,64.90
2023-04-03T17:17:52.152Z,65.71
2023-04-03T17:20:19.103Z,65.39
2023-04-03T17:22:46.055Z,65.34
2023-04-03T17:25:14.130Z,64.86
2023-04-03T17:27:40.897Z,66.11
2023-04-03T17:30:08.553Z,65.51
2023-04-03T17:32:35.501Z,64.66
2023-04-03T17:35:02.074Z,66.66
2023-04-03T17:37:28.681Z,65.82
2023-04-03T17:39:55.372Z,66.26
2023-04-03T17:42:21.960Z,65.80
2023-04-03T17:44:48.621Z,65.82
2023-04-03T17:47:15.377Z,66.58
2023-04-03T17:49:42.116Z,65.33
2023-04-03T17:52:08.768Z,65.88
2023-04-03T17:54:35.453Z,64.96
2023-04-03T17:57:04.470Z,65.93
2023-04-03T17:59:31.708Z,64.80
2023-04-03T18:01:58.513Z,62.95
2023-04-03T18:04:25.467Z,64.46
2023-04-03T18:06:55.362Z,64.31
2023-04-03T18:09:27.069Z,64.06
2023-04-03T18:11:55.873Z,64.13
2023-04-03T18:14:25.583Z,63.58
2023-04-03T18:16:52.391Z,63.63
2023-04-03T18:19:23.403Z,62.90
2023-04-03T18:21:52.414Z,63.12
2023-04-03T18:24:20.687Z,63.88
2023-04-03T18:26:52.278Z,63.40
2023-04-03T18:29:19.150Z,65.30
2023-04-03T18:31:51.133Z,65.61
2023-04-03T18:34:17.777Z,65.89
2023-04-03T18:36:46.564Z,66.70
2023-04-03T18:39:13.533Z,68.24
2023-04-03T18:41:40.864Z,67.48
2023-04-03T18:44:12.812Z,68.06
2023-04-03T18:46:40.393Z,68.11
2023-04-03T18:49:09.562Z,67.10
2023-04-03T18:51:38.941Z,67.41
2023-04-03T18:54:06.187Z,65.92
2023-04-03T18:56:32.819Z,65.52
2023-04-03T18:58:59.478Z,64.86
2023-04-03T19:01:26.260Z,63.27
2023-04-03T19:03:53.030Z,62.98
2023-04-03T19:06:19.707Z,62.37
2023-04-03T19:08:47.121Z,62.61
2023-04-03T19:11:13.827Z,62.26
2023-04-03T19:13:46.893Z,60.70
2023-04-03T19:16:27.353Z,61.54
2023-04-03T19:18:54.104Z,62.84
2023-04-03T19:21:21.156Z,61.77
2023-04-03T19:23:48.743Z,61.09
2023-04-03T19:26:15.544Z,61.42
2023-04-03T19:28:42.648Z,62.43
2023-04-03T19:31:14.599Z,61.58
2023-04-03T19:33:41.700Z,61.93
2023-04-03T19:36:09.539Z,62.05
2023-04-03T19:38:36.427Z,62.63
2023-04-03T19:41:08.957Z,65.40
2023-04-03T19:43:35.490Z,65.76
2023-04-03T19:46:02.310Z,66.27
2023-04-03T19:48:29.586Z,64.90
2023-04-03T19:50:56.229Z,64.71
2023-04-03T19:53:28.986Z,66.20
2023-04-03T19:55:57.239Z,63.99
2023-04-03T19:58:27.823Z,64.54
2023-04-03T20:00:55.507Z,65.56
2023-04-03T20:03:24.236Z,65.83
2023-04-03T20:05:51.246Z,66.56
2023-04-03T20:08:18.201Z,66.62
2023-04-03T20:10:45.022Z,64.39
2023-04-03T20:13:12.210Z,66.66
2023-04-03T20:15:41.015Z,66.46
2023-04-03T20:18:09.717Z,65.76
2023-04-03T20:20:42.045Z,63.14
2023-04-03T20:23:11.297Z,63.10
2023-04-03T20:26:09.514Z,63.94
2023-04-03T20:28:41.173Z,65.17
2023-04-03T20:31:09.223Z,64.19
2023-04-03T20:33:37.232Z,64.06
2023-04-03T20:36:04.239Z,65.85
2023-04-03T20:38:30.910Z,66.03
2023-04-03T20:40:57.625Z,65.22
2023-04-03T20:43:25.409Z,66.64
2023-04-03T20:45:52.489Z,65.32
2023-04-03T20:48:19.361Z,64.85
2023-04-03T20:50:46.593Z,64.04
2023-04-03T20:53:14.917Z,65.85
2023-04-03T20:55:42.220Z,64.61
2023-04-03T20:58:08.908Z,63.22
2023-04-03T21:00:37.607Z,65.72
2023-04-03T21:03:04.685Z,67.13
2023-04-03T21:05:33.331Z,67.33
2023-04-03T21:08:37.710Z,67.13
2023-04-03T21:11:41.883Z,67.33
2023-04-03T21:14:46.890Z,67.08
2023-04-03T21:17:13.441Z,67.93
2023-04-03T21:19:46.133Z,67.36
2023-04-03T21:22:13.950Z,67.19
2023-04-03T21:24:41.083Z,67.02
2023-04-03T21:27:08.484Z,69.08
2023-04-03T21:29:35.272Z,67.92
2023-04-03T21:32:02.115Z,68.76
2023-04-03T21:34:30.978Z,67.95
2023-04-03T21:37:02.887Z,69.24
2023-04-03T21:39:29.728Z,68.20
2023-04-03T21:41:56.668Z,68.62
2023-04-03T21:44:24.206Z,69.12
2023-04-03T21:46:54.888Z,68.59
2023-04-03T21:49:23.143Z,69.34
2023-04-03T21:51:51.841Z,69.35
2023-04-03T21:54:18.787Z,67.62
2023-04-03T21:56:47.940Z,67.57
2023-04-03T21:59:17.389Z,69.09
2023-04-03T22:01:44.141Z,68.98
2023-04-03T22:04:11.604Z,69.08
2023-04-03T22:06:38.330Z,67.91
2023-04-03T22:09:05.442Z,67.72
2023-04-03T22:11:32.245Z,68.43
2023-04-03T22:13:59.827Z,68.28
2023-04-03T22:16:26.587Z,67.70
2023-04-03T22:18:56.163Z,67.47
2023-04-03T22:21:23.287Z,66.92
2023-04-03T22:23:49.953Z,66.85
2023-04-03T22:26:16.658Z,68.26
2023-04-03T22:28:45.593Z,66.79
2023-04-03T22:31:16.326Z,65.36
2023-04-03T22:33:44.331Z,64.46
2023-04-03T22:36:12.066Z,66.53
2023-04-03T22:38:39.880Z,66.83
2023-04-03T22:41:08.171Z,65.63
2023-04-03T22:43:36.533Z,66.23
2023-04-03T22:46:05.521Z,66.93
2023-04-03T22:48:32.172Z,66.58
2023-04-03T22:51:01.015Z,62.96
2023-04-03T22:53:28.635Z,64.73
2023-04-03T22:55:59.695Z,61.18
2023-04-03T22:58:26.838Z,60.23
2023-04-03T23:01:05.245Z,59.87
2023-04-03T23:03:32.286Z,58.45
2023-04-03T23:05:58.956Z,59.34
2023-04-03T23:08:25.807Z,59.88
2023-04-03T23:10:56.562Z,61.47
2023-04-03T23:13:24.262Z,62.06
2023-04-03T23:15:58.568Z,62.07
2023-04-03T23:18:26.777Z,62.65
2023-04-03T23:20:54.866Z,62.57
2023-04-03T23:23:22.500Z,60.94
2023-04-03T23:25:59.956Z,62.38
2023-04-03T23:28:27.822Z,59.57
2023-04-03T23:31:02.206Z,60.57
2023-04-03T23:33:30.511Z,61.14
2023-04-03T23:35:58.521Z,61.14
2023-04-03T23:38:26.111Z,61.48
2023-04-03T23:40:52.762Z,62.14
2023-04-03T23:43:19.404Z,62.01
2023-04-03T23:45:46.103Z,62.39
2023-04-03T23:48:12.747Z,63.43
2023-04-03T23:50:39.593Z,62.45
2023-04-03T23:53:06.505Z,63.71
2023-04-03T23:55:33.169Z,63.49
2023-04-03T23:57:59.798Z,63.57
